Terminal Aerodrome Forecast
Issued by NWS Sterling, VA

Current Version | Previous Version | Graphics & Text | Print | Product List | Glossary On
Versions: 1 2 3 4 5 6 7 8 9 10 11 12 13 14 15 16 17 18 19 20 21 22 23
000
FTUS41 KLWX 121700 RRA
TAFDCA
TAF
KDCA 121740Z 1218/1318 17010KT P6SM SCT045
     FM121900 17011KT P6SM BKN045
     FM130100 16008KT P6SM SCT060
     FM130800 19007KT P6SM BKN060
     FM131100 20008KT P6SM SCT080
     FM131300 20009KT P6SM BKN090=

USA.gov is the U.S. government's official web portal to all federal, state and local government web resources and services.